sensor_id;sensor_type;location;lat;lon;timestamp;P1;durP1;ratioP1;P2;durP2;ratioP2
18752;SDS011;9505;50.882;5.350;2023-04-01T00:02:06;23.00;;;2.95;;
18752;SDS011;9505;50.882;5.350;2023-04-01T00:04:32;26.90;;;2.83;;
18752;SDS011;9505;50.882;5.350;2023-04-01T00:06:58;20.48;;;2.50;;
18752;SDS011;9505;50.882;5.350;2023-04-01T00:09:25;30.00;;;3.17;;
18752;SDS011;9505;50.882;5.350;2023-04-01T00:11:50;34.17;;;3.63;;
18752;SDS011;9505;50.882;5.350;2023-04-01T00:14:16;26.30;;;3.10;;
18752;SDS011;9505;50.882;5.350;2023-04-01T00:16:42;38.30;;;3.67;;
18752;SDS011;9505;50.882;5.350;2023-04-01T00:19:08;30.05;;;3.05;;
18752;SDS011;9505;50.882;5.350;2023-04-01T00:21:34;37.13;;;3.70;;
18752;SDS011;9505;50.882;5.350;2023-04-01T00:23:59;24.23;;;2.58;;
18752;SDS011;9505;50.882;5.350;2023-04-01T00:26:25;28.25;;;2.95;;
18752;SDS011;9505;50.882;5.350;2023-04-01T00:28:51;32.42;;;3.17;;
18752;SDS011;9505;50.882;5.350;2023-04-01T00:31:17;27.35;;;2.88;;
18752;SDS011;9505;50.882;5.350;2023-04-01T00:33:43;30.92;;;3.67;;
18752;SDS011;9505;50.882;5.350;2023-04-01T00:36:13;26.85;;;2.70;;
18752;SDS011;9505;50.882;5.350;2023-04-01T00:38:41;34.65;;;3.55;;
18752;SDS011;9505;50.882;5.350;2023-04-01T00:41:08;27.75;;;3.00;;
18752;SDS011;9505;50.882;5.350;2023-04-01T00:43:39;26.77;;;2.75;;
18752;SDS011;9505;50.882;5.350;2023-04-01T00:46:05;20.48;;;2.35;;
18752;SDS011;9505;50.882;5.350;2023-04-01T00:48:35;25.58;;;2.90;;
18752;SDS011;9505;50.882;5.350;2023-04-01T00:51:05;37.28;;;3.85;;
18752;SDS011;9505;50.882;5.350;2023-04-01T00:53:31;33.60;;;3.95;;
18752;SDS011;9505;50.882;5.350;2023-04-01T00:58:29;32.17;;;3.17;;
18752;SDS011;9505;50.882;5.350;2023-04-01T01:00:56;28.33;;;3.15;;
18752;SDS011;9505;50.882;5.350;2023-04-01T01:03:23;31.02;;;3.38;;
18752;SDS011;9505;50.882;5.350;2023-04-01T01:05:53;33.17;;;3.65;;
18752;SDS011;9505;50.882;5.350;2023-04-01T01:08:36;36.85;;;3.97;;
18752;SDS011;9505;50.882;5.350;2023-04-01T01:11:18;47.72;;;4.20;;
18752;SDS011;9505;50.882;5.350;2023-04-01T01:13:53;30.05;;;3.08;;
18752;SDS011;9505;50.882;5.350;2023-04-01T01:16:33;26.20;;;3.08;;
18752;SDS011;9505;50.882;5.350;2023-04-01T01:27:54;29.67;;;2.92;;
18752;SDS011;9505;50.882;5.350;2023-04-01T01:30:48;36.03;;;3.78;;
18752;SDS011;9505;50.882;5.350;2023-04-01T01:33:42;32.60;;;3.15;;
18752;SDS011;9505;50.882;5.350;2023-04-01T01:36:14;25.65;;;2.70;;
18752;SDS011;9505;50.882;5.350;2023-04-01T01:38:43;41.72;;;4.30;;
18752;SDS011;9505;50.882;5.350;2023-04-01T01:41:12;25.08;;;2.63;;
18752;SDS011;9505;50.882;5.350;2023-04-01T01:43:44;23.63;;;2.15;;
18752;SDS011;9505;50.882;5.350;2023-04-01T01:46:14;30.20;;;2.92;;
18752;SDS011;9505;50.882;5.350;2023-04-01T01:48:47;26.95;;;2.60;;
18752;SDS011;9505;50.882;5.350;2023-04-01T01:51:15;40.03;;;3.78;;
18752;SDS011;9505;50.882;5.350;2023-04-01T01:53:43;35.75;;;3.20;;
18752;SDS011;9505;50.882;5.350;2023-04-01T01:56:10;34.05;;;3.25;;
18752;SDS011;9505;50.882;5.350;2023-04-01T01:58:49;42.10;;;4.00;;
18752;SDS011;9505;50.882;5.350;2023-04-01T02:01:24;25.75;;;2.58;;
18752;SDS011;9505;50.882;5.350;2023-04-01T02:03:53;36.45;;;3.53;;
18752;SDS011;9505;50.882;5.350;2023-04-01T02:06:21;29.10;;;2.35;;
18752;SDS011;9505;50.882;5.350;2023-04-01T02:19:08;35.15;;;3.53;;
18752;SDS011;9505;50.882;5.350;2023-04-01T02:21:36;35.20;;;3.65;;
18752;SDS011;9505;50.882;5.350;2023-04-01T02:24:04;39.47;;;3.83;;
18752;SDS011;9505;50.882;5.350;2023-04-01T02:26:32;32.80;;;3.35;;
18752;SDS011;9505;50.882;5.350;2023-04-01T02:28:59;33.75;;;3.50;;
18752;SDS011;9505;50.882;5.350;2023-04-01T02:31:28;42.53;;;4.28;;
18752;SDS011;9505;50.882;5.350;2023-04-01T02:33:55;30.13;;;3.30;;
18752;SDS011;9505;50.882;5.350;2023-04-01T02:36:22;45.33;;;4.45;;
18752;SDS011;9505;50.882;5.350;2023-04-01T02:38:47;42.05;;;4.47;;
18752;SDS011;9505;50.882;5.350;2023-04-01T02:41:16;33.42;;;3.47;;
18752;SDS011;9505;50.882;5.350;2023-04-01T02:43:42;39.65;;;4.10;;
18752;SDS011;9505;50.882;5.350;2023-04-01T02:46:07;29.63;;;3.47;;
18752;SDS011;9505;50.882;5.350;2023-04-01T02:48:33;30.70;;;3.35;;
18752;SDS011;9505;50.882;5.350;2023-04-01T02:50:59;41.88;;;4.55;;
18752;SDS011;9505;50.882;5.350;2023-04-01T02:53:25;35.72;;;3.97;;
18752;SDS011;9505;50.882;5.350;2023-04-01T02:55:50;36.50;;;4.28;;
18752;SDS011;9505;50.882;5.350;2023-04-01T02:58:17;41.78;;;4.47;;
18752;SDS011;9505;50.882;5.350;2023-04-01T03:00:43;41.10;;;4.80;;
18752;SDS011;9505;50.882;5.350;2023-04-01T03:03:11;37.78;;;4.38;;
18752;SDS011;9505;50.882;5.350;2023-04-01T03:05:38;39.13;;;4.55;;
18752;SDS011;9505;50.882;5.350;2023-04-01T03:08:04;20.90;;;3.00;;
18752;SDS011;9505;50.882;5.350;2023-04-01T03:10:31;34.13;;;4.03;;
18752;SDS011;9505;50.882;5.350;2023-04-01T03:12:56;40.60;;;4.75;;
18752;SDS011;9505;50.882;5.350;2023-04-01T03:15:22;22.45;;;3.53;;
18752;SDS011;9505;50.882;5.350;2023-04-01T03:17:48;37.75;;;4.55;;
18752;SDS011;9505;50.882;5.350;2023-04-01T03:20:15;39.20;;;4.70;;
18752;SDS011;9505;50.882;5.350;2023-04-01T03:22:41;42.28;;;5.28;;
18752;SDS011;9505;50.882;5.350;2023-04-01T03:25:06;36.70;;;5.18;;
18752;SDS011;9505;50.882;5.350;2023-04-01T03:27:33;46.75;;;6.18;;
18752;SDS011;9505;50.882;5.350;2023-04-01T03:30:00;40.83;;;5.43;;
18752;SDS011;9505;50.882;5.350;2023-04-01T03:32:27;33.55;;;5.05;;
18752;SDS011;9505;50.882;5.350;2023-04-01T03:34:53;32.78;;;4.43;;
18752;SDS011;9505;50.882;5.350;2023-04-01T03:37:18;44.58;;;5.82;;
18752;SDS011;9505;50.882;5.350;2023-04-01T03:39:44;44.55;;;5.63;;
18752;SDS011;9505;50.882;5.350;2023-04-01T03:42:10;53.35;;;6.07;;
18752;SDS011;9505;50.882;5.350;2023-04-01T03:44:36;36.70;;;5.13;;
18752;SDS011;9505;50.882;5.350;2023-04-01T03:47:02;52.92;;;6.53;;
18752;SDS011;9505;50.882;5.350;2023-04-01T03:49:28;48.00;;;5.97;;
18752;SDS011;9505;50.882;5.350;2023-04-01T03:51:53;45.70;;;5.88;;
18752;SDS011;9505;50.882;5.350;2023-04-01T03:54:19;42.90;;;5.45;;
18752;SDS011;9505;50.882;5.350;2023-04-01T03:56:45;42.90;;;5.57;;
18752;SDS011;9505;50.882;5.350;2023-04-01T03:59:11;42.25;;;5.35;;
18752;SDS011;9505;50.882;5.350;2023-04-01T04:01:37;28.05;;;4.00;;
18752;SDS011;9505;50.882;5.350;2023-04-01T04:04:03;38.05;;;4.88;;
18752;SDS011;9505;50.882;5.350;2023-04-01T04:06:29;48.33;;;5.50;;
18752;SDS011;9505;50.882;5.350;2023-04-01T04:08:55;51.50;;;5.68;;
18752;SDS011;9505;50.882;5.350;2023-04-01T04:11:21;16.65;;;3.30;;
18752;SDS011;9505;50.882;5.350;2023-04-01T04:13:47;49.47;;;5.65;;
18752;SDS011;9505;50.882;5.350;2023-04-01T04:16:15;22.27;;;3.17;;
18752;SDS011;9505;50.882;5.350;2023-04-01T04:18:41;31.42;;;4.22;;
18752;SDS011;9505;50.882;5.350;2023-04-01T04:21:10;36.45;;;4.88;;
18752;SDS011;9505;50.882;5.350;2023-04-01T04:23:40;28.08;;;4.43;;
18752;SDS011;9505;50.882;5.350;2023-04-01T04:26:07;34.72;;;5.03;;
18752;SDS011;9505;50.882;5.350;2023-04-01T04:28:34;31.08;;;4.30;;
18752;SDS011;9505;50.882;5.350;2023-04-01T04:31:00;40.85;;;5.38;;
18752;SDS011;9505;50.882;5.350;2023-04-01T04:33:26;30.00;;;4.55;;
18752;SDS011;9505;50.882;5.350;2023-04-01T04:35:54;38.30;;;4.90;;
18752;SDS011;9505;50.882;5.350;2023-04-01T04:38:21;27.50;;;5.10;;
18752;SDS011;9505;50.882;5.350;2023-04-01T04:40:46;37.97;;;5.10;;
18752;SDS011;9505;50.882;5.350;2023-04-01T04:43:12;51.33;;;6.28;;
18752;SDS011;9505;50.882;5.350;2023-04-01T04:45:40;36.83;;;5.20;;
18752;SDS011;9505;50.882;5.350;2023-04-01T04:48:09;39.97;;;5.10;;
18752;SDS011;9505;50.882;5.350;2023-04-01T04:50:35;44.72;;;5.78;;
18752;SDS011;9505;50.882;5.350;2023-04-01T04:53:02;24.77;;;4.68;;
18752;SDS011;9505;50.882;5.350;2023-04-01T04:55:28;40.70;;;5.10;;
18752;SDS011;9505;50.882;5.350;2023-04-01T04:57:53;42.75;;;6.43;;
18752;SDS011;9505;50.882;5.350;2023-04-01T05:00:19;31.48;;;5.38;;
18752;SDS011;9505;50.882;5.350;2023-04-01T05:02:45;32.33;;;5.45;;
18752;SDS011;9505;50.882;5.350;2023-04-01T05:05:10;36.30;;;5.70;;
18752;SDS011;9505;50.882;5.350;2023-04-01T05:07:36;19.75;;;4.72;;
18752;SDS011;9505;50.882;5.350;2023-04-01T05:10:02;39.33;;;7.15;;
18752;SDS011;9505;50.882;5.350;2023-04-01T05:12:28;30.83;;;6.00;;
18752;SDS011;9505;50.882;5.350;2023-04-01T05:14:53;30.20;;;6.60;;
18752;SDS011;9505;50.882;5.350;2023-04-01T05:17:19;34.80;;;6.78;;
18752;SDS011;9505;50.882;5.350;2023-04-01T05:19:45;37.05;;;7.55;;
18752;SDS011;9505;50.882;5.350;2023-04-01T05:22:11;48.53;;;7.88;;
18752;SDS011;9505;50.882;5.350;2023-04-01T05:24:36;28.33;;;5.57;;
18752;SDS011;9505;50.882;5.350;2023-04-01T05:27:02;48.35;;;8.05;;
18752;SDS011;9505;50.882;5.350;2023-04-01T05:29:27;36.15;;;6.85;;
18752;SDS011;9505;50.882;5.350;2023-04-01T05:31:53;51.92;;;8.70;;
18752;SDS011;9505;50.882;5.350;2023-04-01T05:34:18;51.35;;;7.60;;
18752;SDS011;9505;50.882;5.350;2023-04-01T05:36:44;40.17;;;6.18;;
18752;SDS011;9505;50.882;5.350;2023-04-01T05:39:10;46.25;;;7.07;;
18752;SDS011;9505;50.882;5.350;2023-04-01T05:41:36;39.78;;;6.75;;
18752;SDS011;9505;50.882;5.350;2023-04-01T05:44:02;38.63;;;7.05;;
18752;SDS011;9505;50.882;5.350;2023-04-01T05:46:28;42.10;;;7.22;;
18752;SDS011;9505;50.882;5.350;2023-04-01T05:48:54;25.45;;;5.55;;
18752;SDS011;9505;50.882;5.350;2023-04-01T05:51:19;32.53;;;5.32;;
18752;SDS011;9505;50.882;5.350;2023-04-01T05:53:45;32.35;;;6.45;;
18752;SDS011;9505;50.882;5.350;2023-04-01T05:56:10;32.95;;;5.57;;
18752;SDS011;9505;50.882;5.350;2023-04-01T05:58:37;39.40;;;6.45;;
18752;SDS011;9505;50.882;5.350;2023-04-01T06:01:03;28.85;;;5.35;;
18752;SDS011;9505;50.882;5.350;2023-04-01T06:03:31;39.70;;;6.45;;
18752;SDS011;9505;50.882;5.350;2023-04-01T06:05:57;39.03;;;6.20;;
18752;SDS011;9505;50.882;5.350;2023-04-01T06:08:23;33.97;;;6.03;;
18752;SDS011;9505;50.882;5.350;2023-04-01T06:16:25;26.83;;;4.45;;
18752;SDS011;9505;50.882;5.350;2023-04-01T06:30:45;21.75;;;3.90;;
18752;SDS011;9505;50.882;5.350;2023-04-01T06:41:28;25.73;;;4.50;;
18752;SDS011;9505;50.882;5.350;2023-04-01T06:55:36;19.20;;;3.25;;
18752;SDS011;9505;50.882;5.350;2023-04-01T06:58:25;22.90;;;3.63;;
18752;SDS011;9505;50.882;5.350;2023-04-01T07:00:56;31.63;;;4.82;;
18752;SDS011;9505;50.882;5.350;2023-04-01T07:06:03;36.20;;;4.88;;
18752;SDS011;9505;50.882;5.350;2023-04-01T07:08:31;18.90;;;2.85;;
18752;SDS011;9505;50.882;5.350;2023-04-01T07:11:02;34.35;;;5.63;;
18752;SDS011;9505;50.882;5.350;2023-04-01T07:21:29;23.70;;;4.07;;
18752;SDS011;9505;50.882;5.350;2023-04-01T07:24:25;28.48;;;4.13;;
18752;SDS011;9505;50.882;5.350;2023-04-01T07:26:57;20.05;;;3.40;;
18752;SDS011;9505;50.882;5.350;2023-04-01T07:29:24;25.65;;;4.20;;
18752;SDS011;9505;50.882;5.350;2023-04-01T07:34:26;30.40;;;4.18;;
18752;SDS011;9505;50.882;5.350;2023-04-01T07:37:06;28.65;;;4.35;;
18752;SDS011;9505;50.882;5.350;2023-04-01T07:40:10;17.08;;;3.33;;
18752;SDS011;9505;50.882;5.350;2023-04-01T07:45:35;35.47;;;4.72;;
18752;SDS011;9505;50.882;5.350;2023-04-01T07:48:18;32.88;;;4.43;;
18752;SDS011;9505;50.882;5.350;2023-04-01T07:51:02;30.90;;;4.03;;
18752;SDS011;9505;50.882;5.350;2023-04-01T07:53:38;22.02;;;3.05;;
18752;SDS011;9505;50.882;5.350;2023-04-01T07:59:02;28.10;;;3.22;;
18752;SDS011;9505;50.882;5.350;2023-04-01T08:04:57;45.85;;;5.03;;
18752;SDS011;9505;50.882;5.350;2023-04-01T08:07:44;60.97;;;6.55;;
18752;SDS011;9505;50.882;5.350;2023-04-01T08:21:43;34.92;;;4.00;;
18752;SDS011;9505;50.882;5.350;2023-04-01T08:26:58;63.40;;;6.47;;
18752;SDS011;9505;50.882;5.350;2023-04-01T08:29:36;48.75;;;5.07;;
18752;SDS011;9505;50.882;5.350;2023-04-01T08:32:11;87.22;;;8.68;;
18752;SDS011;9505;50.882;5.350;2023-04-01T08:34:42;59.45;;;6.22;;
18752;SDS011;9505;50.882;5.350;2023-04-01T08:37:15;67.53;;;7.47;;
18752;SDS011;9505;50.882;5.350;2023-04-01T08:39:46;56.90;;;6.13;;
18752;SDS011;9505;50.882;5.350;2023-04-01T08:42:35;67.38;;;7.35;;
18752;SDS011;9505;50.882;5.350;2023-04-01T08:45:11;16.20;;;2.72;;
18752;SDS011;9505;50.882;5.350;2023-04-01T09:07:40;29.60;;;3.70;;
18752;SDS011;9505;50.882;5.350;2023-04-01T09:10:33;40.85;;;4.47;;
18752;SDS011;9505;50.882;5.350;2023-04-01T09:13:08;57.42;;;6.20;;
18752;SDS011;9505;50.882;5.350;2023-04-01T09:26:59;84.03;;;8.65;;
18752;SDS011;9505;50.882;5.350;2023-04-01T09:32:16;31.85;;;4.28;;
18752;SDS011;9505;50.882;5.350;2023-04-01T09:54:04;49.60;;;5.50;;
18752;SDS011;9505;50.882;5.350;2023-04-01T09:56:57;27.42;;;3.42;;
18752;SDS011;9505;50.882;5.350;2023-04-01T09:59:48;27.08;;;3.45;;
18752;SDS011;9505;50.882;5.350;2023-04-01T10:11:36;77.07;;;7.93;;
18752;SDS011;9505;50.882;5.350;2023-04-01T10:28:23;88.72;;;9.20;;
18752;SDS011;9505;50.882;5.350;2023-04-01T10:34:20;36.35;;;4.28;;
18752;SDS011;9505;50.882;5.350;2023-04-01T10:36:56;36.75;;;5.45;;
18752;SDS011;9505;50.882;5.350;2023-04-01T10:56:39;38.45;;;4.70;;
18752;SDS011;9505;50.882;5.350;2023-04-01T11:25:11;34.33;;;4.20;;
18752;SDS011;9505;50.882;5.350;2023-04-01T11:28:20;30.02;;;4.25;;
18752;SDS011;9505;50.882;5.350;2023-04-01T11:33:44;21.33;;;3.88;;
18752;SDS011;9505;50.882;5.350;2023-04-01T11:46:46;70.15;;;8.60;;
18752;SDS011;9505;50.882;5.350;2023-04-01T11:49:49;60.03;;;7.93;;
18752;SDS011;9505;50.882;5.350;2023-04-01T11:58:55;74.93;;;8.98;;
18752;SDS011;9505;50.882;5.350;2023-04-01T12:09:51;31.40;;;3.97;;
18752;SDS011;9505;50.882;5.350;2023-04-01T12:15:17;75.07;;;8.13;;
18752;SDS011;9505;50.882;5.350;2023-04-01T12:26:56;35.80;;;4.25;;
18752;SDS011;9505;50.882;5.350;2023-04-01T12:40:28;81.70;;;8.38;;
18752;SDS011;9505;50.882;5.350;2023-04-01T12:57:50;80.32;;;8.68;;
18752;SDS011;9505;50.882;5.350;2023-04-01T13:11:18;29.45;;;4.43;;
18752;SDS011;9505;50.882;5.350;2023-04-01T13:16:35;67.68;;;7.88;;
18752;SDS011;9505;50.882;5.350;2023-04-01T13:19:21;55.95;;;6.57;;
18752;SDS011;9505;50.882;5.350;2023-04-01T13:25:24;76.13;;;8.50;;
18752;SDS011;9505;50.882;5.350;2023-04-01T13:28:05;48.38;;;6.57;;
18752;SDS011;9505;50.882;5.350;2023-04-01T13:31:02;48.17;;;6.72;;
18752;SDS011;9505;50.882;5.350;2023-04-01T13:33:50;56.00;;;7.72;;
18752;SDS011;9505;50.882;5.350;2023-04-01T13:42:15;71.43;;;9.07;;
18752;SDS011;9505;50.882;5.350;2023-04-01T13:45:00;36.83;;;6.15;;
18752;SDS011;9505;50.882;5.350;2023-04-01T13:50:30;75.88;;;8.50;;
18752;SDS011;9505;50.882;5.350;2023-04-01T13:53:11;36.92;;;4.57;;
18752;SDS011;9505;50.882;5.350;2023-04-01T13:56:13;37.63;;;4.78;;
18752;SDS011;9505;50.882;5.350;2023-04-01T14:01:15;49.25;;;6.47;;
18752;SDS011;9505;50.882;5.350;2023-04-01T14:12:27;62.58;;;7.03;;
18752;SDS011;9505;50.882;5.350;2023-04-01T14:26:03;22.23;;;3.17;;
18752;SDS011;9505;50.882;5.350;2023-04-01T14:28:48;15.32;;;2.63;;
18752;SDS011;9505;50.882;5.350;2023-04-01T14:33:57;57.83;;;6.95;;
18752;SDS011;9505;50.882;5.350;2023-04-01T14:36:42;40.60;;;5.18;;
18752;SDS011;9505;50.882;5.350;2023-04-01T14:39:20;52.72;;;6.47;;
18752;SDS011;9505;50.882;5.350;2023-04-01T14:41:59;67.15;;;8.02;;
18752;SDS011;9505;50.882;5.350;2023-04-01T14:44:43;22.13;;;4.22;;
18752;SDS011;9505;50.882;5.350;2023-04-01T14:50:06;60.88;;;6.97;;
18752;SDS011;9505;50.882;5.350;2023-04-01T14:52:40;63.05;;;7.15;;
18752;SDS011;9505;50.882;5.350;2023-04-01T14:58:10;66.75;;;7.57;;
18752;SDS011;9505;50.882;5.350;2023-04-01T15:08:51;53.33;;;5.90;;
18752;SDS011;9505;50.882;5.350;2023-04-01T15:14:39;49.47;;;6.05;;
18752;SDS011;9505;50.882;5.350;2023-04-01T15:28:21;49.00;;;6.00;;
18752;SDS011;9505;50.882;5.350;2023-04-01T15:36:53;28.85;;;4.38;;
18752;SDS011;9505;50.882;5.350;2023-04-01T15:42:16;35.78;;;5.20;;
18752;SDS011;9505;50.882;5.350;2023-04-01T15:44:53;31.33;;;4.88;;
18752;SDS011;9505;50.882;5.350;2023-04-01T15:47:32;38.40;;;5.63;;
18752;SDS011;9505;50.882;5.350;2023-04-01T15:52:36;41.10;;;6.03;;
18752;SDS011;9505;50.882;5.350;2023-04-01T16:03:50;51.75;;;6.78;;
18752;SDS011;9505;50.882;5.350;2023-04-01T16:12:00;59.83;;;8.13;;
18752;SDS011;9505;50.882;5.350;2023-04-01T16:17:35;39.17;;;5.95;;
18752;SDS011;9505;50.882;5.350;2023-04-01T16:20:20;52.17;;;7.43;;
18752;SDS011;9505;50.882;5.350;2023-04-01T16:23:16;75.18;;;9.50;;
18752;SDS011;9505;50.882;5.350;2023-04-01T16:26:01;64.57;;;8.30;;
18752;SDS011;9505;50.882;5.350;2023-04-01T16:28:55;61.35;;;7.93;;
18752;SDS011;9505;50.882;5.350;2023-04-01T16:37:05;56.08;;;7.72;;
18752;SDS011;9505;50.882;5.350;2023-04-01T16:45:33;55.92;;;8.07;;
18752;SDS011;9505;50.882;5.350;2023-04-01T16:50:55;32.58;;;6.18;;
18752;SDS011;9505;50.882;5.350;2023-04-01T16:53:47;53.70;;;8.57;;
18752;SDS011;9505;50.882;5.350;2023-04-01T16:56:14;59.08;;;8.90;;
18752;SDS011;9505;50.882;5.350;2023-04-01T17:01:55;58.35;;;9.48;;
18752;SDS011;9505;50.882;5.350;2023-04-01T17:04:33;33.00;;;6.53;;
18752;SDS011;9505;50.882;5.350;2023-04-01T17:07:20;67.55;;;10.07;;
18752;SDS011;9505;50.882;5.350;2023-04-01T17:15:10;88.25;;;12.23;;
18752;SDS011;9505;50.882;5.350;2023-04-01T17:30:58;40.22;;;7.22;;
18752;SDS011;9505;50.882;5.350;2023-04-01T17:44:49;63.38;;;9.63;;
18752;SDS011;9505;50.882;5.350;2023-04-01T17:47:25;33.90;;;5.78;;
18752;SDS011;9505;50.882;5.350;2023-04-01T18:06:29;51.30;;;7.18;;
18752;SDS011;9505;50.882;5.350;2023-04-01T18:25:55;71.10;;;10.00;;
18752;SDS011;9505;50.882;5.350;2023-04-01T18:31:10;25.67;;;6.00;;
18752;SDS011;9505;50.882;5.350;2023-04-01T18:33:46;20.92;;;5.85;;
18752;SDS011;9505;50.882;5.350;2023-04-01T18:52:49;41.47;;;8.20;;
18752;SDS011;9505;50.882;5.350;2023-04-01T19:01:01;46.03;;;9.48;;
18752;SDS011;9505;50.882;5.350;2023-04-01T19:03:48;35.85;;;7.90;;
18752;SDS011;9505;50.882;5.350;2023-04-01T19:09:22;37.72;;;9.18;;
18752;SDS011;9505;50.882;5.350;2023-04-01T19:23:11;24.10;;;7.78;;
18752;SDS011;9505;50.882;5.350;2023-04-01T19:26:00;57.90;;;11.38;;
18752;SDS011;9505;50.882;5.350;2023-04-01T19:31:07;34.85;;;9.27;;
18752;SDS011;9505;50.882;5.350;2023-04-01T19:50:20;43.88;;;11.18;;
18752;SDS011;9505;50.882;5.350;2023-04-01T19:52:59;49.83;;;12.30;;
18752;SDS011;9505;50.882;5.350;2023-04-01T19:55:52;59.30;;;13.13;;
18752;SDS011;9505;50.882;5.350;2023-04-01T19:58:36;40.35;;;12.20;;
18752;SDS011;9505;50.882;5.350;2023-04-01T20:01:18;82.00;;;16.42;;
18752;SDS011;9505;50.882;5.350;2023-04-01T20:03:50;73.13;;;15.65;;
18752;SDS011;9505;50.882;5.350;2023-04-01T20:06:24;84.53;;;17.05;;
18752;SDS011;9505;50.882;5.350;2023-04-01T20:11:48;53.28;;;14.18;;
18752;SDS011;9505;50.882;5.350;2023-04-01T20:17:31;46.53;;;13.40;;
18752;SDS011;9505;50.882;5.350;2023-04-01T20:27:49;86.22;;;16.95;;
18752;SDS011;9505;50.882;5.350;2023-04-01T20:33:07;73.53;;;15.77;;
18752;SDS011;9505;50.882;5.350;2023-04-01T20:41:32;42.70;;;12.77;;
18752;SDS011;9505;50.882;5.350;2023-04-01T20:44:04;47.15;;;12.77;;
18752;SDS011;9505;50.882;5.350;2023-04-01T20:46:51;42.05;;;13.70;;
18752;SDS011;9505;50.882;5.350;2023-04-01T20:49:33;48.95;;;14.32;;
18752;SDS011;9505;50.882;5.350;2023-04-01T21:08:53;48.30;;;12.90;;
18752;SDS011;9505;50.882;5.350;2023-04-01T21:20:24;45.78;;;12.02;;
18752;SDS011;9505;50.882;5.350;2023-04-01T21:23:18;44.38;;;11.07;;
18752;SDS011;9505;50.882;5.350;2023-04-01T21:39:46;57.60;;;13.90;;
18752;SDS011;9505;50.882;5.350;2023-04-01T22:02:10;42.28;;;11.15;;
18752;SDS011;9505;50.882;5.350;2023-04-01T22:05:07;53.67;;;11.73;;
18752;SDS011;9505;50.882;5.350;2023-04-01T22:07:59;53.30;;;12.40;;
18752;SDS011;9505;50.882;5.350;2023-04-01T22:10:38;59.97;;;13.02;;
18752;SDS011;9505;50.882;5.350;2023-04-01T22:15:54;46.00;;;11.38;;
18752;SDS011;9505;50.882;5.350;2023-04-01T22:26:56;54.25;;;12.57;;
18752;SDS011;9505;50.882;5.350;2023-04-01T22:29:48;50.25;;;12.57;;
18752;SDS011;9505;50.882;5.350;2023-04-01T22:32:24;44.20;;;11.30;;
18752;SDS011;9505;50.882;5.350;2023-04-01T22:35:07;44.45;;;10.65;;
18752;SDS011;9505;50.882;5.350;2023-04-01T22:43:47;39.63;;;8.77;;
18752;SDS011;9505;50.882;5.350;2023-04-01T22:48:49;45.13;;;9.60;;
18752;SDS011;9505;50.882;5.350;2023-04-01T22:51:43;41.22;;;8.50;;
18752;SDS011;9505;50.882;5.350;2023-04-01T23:00:15;44.20;;;10.95;;
18752;SDS011;9505;50.882;5.350;2023-04-01T23:16:48;57.90;;;14.60;;
18752;SDS011;9505;50.882;5.350;2023-04-01T23:27:53;60.03;;;14.02;;
18752;SDS011;9505;50.882;5.350;2023-04-01T23:36:00;59.00;;;15.43;;
18752;SDS011;9505;50.882;5.350;2023-04-01T23:38:40;59.45;;;14.73;;
18752;SDS011;9505;50.882;5.350;2023-04-01T23:41:07;51.95;;;13.10;;
18752;SDS011;9505;50.882;5.350;2023-04-01T23:43:42;57.17;;;14.65;;
18752;SDS011;9505;50.882;5.350;2023-04-01T23:46:10;50.00;;;13.15;;
18752;SDS011;9505;50.882;5.350;2023-04-01T23:48:39;50.65;;;12.55;;
18752;SDS011;9505;50.882;5.350;2023-04-01T23:54:05;51.47;;;11.95;;
18752;SDS011;9505;50.882;5.350;2023-04-01T23:56:41;50.70;;;12.07;;
18752;SDS011;9505;50.882;5.350;2023-04-01T23:59:14;49.20;;;11.55;;
